sensor_id;sensor_type;location;lat;lon;timestamp;P1;durP1;ratioP1;P2;durP2;ratioP2
39948;SDS011;29070;48.102;-1.652;2022-11-15T00:02:43;7.63;;;1.53;;
39948;SDS011;29070;48.102;-1.652;2022-11-15T00:07:43;10.53;;;1.77;;
39948;SDS011;29070;48.102;-1.652;2022-11-15T00:12:43;11.10;;;1.77;;
39948;SDS011;29070;48.102;-1.652;2022-11-15T00:17:44;9.57;;;1.47;;
39948;SDS011;29070;48.102;-1.652;2022-11-15T00:22:44;4.78;;;1.48;;
39948;SDS011;29070;48.102;-1.652;2022-11-15T00:27:44;5.57;;;1.67;;
39948;SDS011;29070;48.102;-1.652;2022-11-15T00:32:45;6.25;;;1.65;;
39948;SDS011;29070;48.102;-1.652;2022-11-15T00:37:45;4.73;;;1.43;;
39948;SDS011;29070;48.102;-1.652;2022-11-15T00:42:47;4.15;;;1.35;;
39948;SDS011;29070;48.102;-1.652;2022-11-15T00:47:47;8.70;;;2.00;;
39948;SDS011;29070;48.102;-1.652;2022-11-15T00:52:48;6.50;;;1.30;;
39948;SDS011;29070;48.102;-1.652;2022-11-15T00:57:48;8.20;;;1.40;;
39948;SDS011;29070;48.102;-1.652;2022-11-15T01:02:48;11.47;;;1.13;;
39948;SDS011;29070;48.102;-1.652;2022-11-15T01:07:52;10.97;;;0.97;;
39948;SDS011;29070;48.102;-1.652;2022-11-15T01:12:53;7.63;;;1.40;;
39948;SDS011;29070;48.102;-1.652;2022-11-15T01:17:53;5.70;;;1.30;;
39948;SDS011;29070;48.102;-1.652;2022-11-15T01:22:54;6.65;;;1.10;;
39948;SDS011;29070;48.102;-1.652;2022-11-15T01:27:55;6.27;;;1.10;;
39948;SDS011;29070;48.102;-1.652;2022-11-15T01:32:55;4.43;;;1.10;;
39948;SDS011;29070;48.102;-1.652;2022-11-15T01:37:55;4.33;;;1.20;;
39948;SDS011;29070;48.102;-1.652;2022-11-15T01:42:56;6.23;;;0.70;;
39948;SDS011;29070;48.102;-1.652;2022-11-15T01:47:56;6.07;;;1.10;;
39948;SDS011;29070;48.102;-1.652;2022-11-15T01:52:57;4.93;;;0.80;;
39948;SDS011;29070;48.102;-1.652;2022-11-15T01:57:58;7.68;;;0.70;;
39948;SDS011;29070;48.102;-1.652;2022-11-15T02:03:02;6.03;;;0.93;;
39948;SDS011;29070;48.102;-1.652;2022-11-15T02:08:02;5.88;;;1.27;;
39948;SDS011;29070;48.102;-1.652;2022-11-15T02:13:03;7.80;;;0.80;;
39948;SDS011;29070;48.102;-1.652;2022-11-15T02:34:08;5.03;;;0.50;;
39948;SDS011;29070;48.102;-1.652;2022-11-15T02:39:18;6.10;;;0.77;;
39948;SDS011;29070;48.102;-1.652;2022-11-15T02:44:32;4.53;;;0.80;;
39948;SDS011;29070;48.102;-1.652;2022-11-15T02:49:36;6.97;;;1.08;;
39948;SDS011;29070;48.102;-1.652;2022-11-15T02:54:37;4.60;;;0.70;;
39948;SDS011;29070;48.102;-1.652;2022-11-15T03:04:46;8.30;;;0.90;;
39948;SDS011;29070;48.102;-1.652;2022-11-15T03:09:52;9.60;;;1.98;;
39948;SDS011;29070;48.102;-1.652;2022-11-15T03:15:00;3.85;;;0.80;;
39948;SDS011;29070;48.102;-1.652;2022-11-15T03:20:06;8.05;;;0.63;;
39948;SDS011;29070;48.102;-1.652;2022-11-15T03:25:09;4.50;;;1.25;;
39948;SDS011;29070;48.102;-1.652;2022-11-15T03:30:16;5.22;;;0.93;;
39948;SDS011;29070;48.102;-1.652;2022-11-15T03:35:21;4.18;;;0.85;;
39948;SDS011;29070;48.102;-1.652;2022-11-15T03:40:30;6.10;;;0.95;;
39948;SDS011;29070;48.102;-1.652;2022-11-15T03:51:01;6.10;;;1.10;;
39948;SDS011;29070;48.102;-1.652;2022-11-15T03:56:02;2.95;;;0.52;;
39948;SDS011;29070;48.102;-1.652;2022-11-15T04:01:03;4.95;;;1.13;;
39948;SDS011;29070;48.102;-1.652;2022-11-15T04:06:03;2.53;;;0.70;;
39948;SDS011;29070;48.102;-1.652;2022-11-15T04:11:04;4.90;;;0.85;;
39948;SDS011;29070;48.102;-1.652;2022-11-15T04:16:04;9.83;;;1.03;;
39948;SDS011;29070;48.102;-1.652;2022-11-15T04:21:05;11.35;;;2.20;;
39948;SDS011;29070;48.102;-1.652;2022-11-15T04:26:24;6.38;;;0.80;;
39948;SDS011;29070;48.102;-1.652;2022-11-15T04:31:24;3.58;;;1.00;;
39948;SDS011;29070;48.102;-1.652;2022-11-15T04:36:25;6.25;;;0.90;;
39948;SDS011;29070;48.102;-1.652;2022-11-15T04:41:44;9.00;;;1.02;;
39948;SDS011;29070;48.102;-1.652;2022-11-15T04:46:44;6.97;;;1.00;;
39948;SDS011;29070;48.102;-1.652;2022-11-15T04:51:44;5.87;;;1.13;;
39948;SDS011;29070;48.102;-1.652;2022-11-15T04:56:45;10.48;;;1.63;;
39948;SDS011;29070;48.102;-1.652;2022-11-15T05:01:45;6.50;;;0.93;;
39948;SDS011;29070;48.102;-1.652;2022-11-15T05:06:46;10.47;;;1.13;;
39948;SDS011;29070;48.102;-1.652;2022-11-15T05:11:50;3.83;;;0.90;;
39948;SDS011;29070;48.102;-1.652;2022-11-15T05:16:50;6.93;;;0.70;;
39948;SDS011;29070;48.102;-1.652;2022-11-15T05:21:51;8.07;;;0.97;;
39948;SDS011;29070;48.102;-1.652;2022-11-15T05:26:51;5.43;;;1.00;;
39948;SDS011;29070;48.102;-1.652;2022-11-15T05:31:51;7.60;;;0.97;;
39948;SDS011;29070;48.102;-1.652;2022-11-15T05:36:52;6.73;;;1.50;;
39948;SDS011;29070;48.102;-1.652;2022-11-15T05:41:54;8.10;;;1.15;;
39948;SDS011;29070;48.102;-1.652;2022-11-15T05:47:00;3.58;;;1.15;;
39948;SDS011;29070;48.102;-1.652;2022-11-15T05:52:02;8.05;;;1.25;;
39948;SDS011;29070;48.102;-1.652;2022-11-15T05:57:05;5.15;;;1.00;;
39948;SDS011;29070;48.102;-1.652;2022-11-15T06:02:06;5.95;;;1.30;;
39948;SDS011;29070;48.102;-1.652;2022-11-15T06:07:06;7.80;;;0.77;;
39948;SDS011;29070;48.102;-1.652;2022-11-15T06:12:07;6.73;;;1.33;;
39948;SDS011;29070;48.102;-1.652;2022-11-15T06:17:07;6.33;;;0.80;;
39948;SDS011;29070;48.102;-1.652;2022-11-15T06:22:07;6.83;;;0.93;;
39948;SDS011;29070;48.102;-1.652;2022-11-15T06:27:10;7.15;;;1.88;;
39948;SDS011;29070;48.102;-1.652;2022-11-15T06:32:11;4.80;;;1.20;;
39948;SDS011;29070;48.102;-1.652;2022-11-15T06:37:11;6.33;;;0.63;;
39948;SDS011;29070;48.102;-1.652;2022-11-15T06:42:11;6.13;;;1.20;;
39948;SDS011;29070;48.102;-1.652;2022-11-15T06:47:12;6.80;;;1.37;;
39948;SDS011;29070;48.102;-1.652;2022-11-15T06:52:12;4.03;;;1.13;;
39948;SDS011;29070;48.102;-1.652;2022-11-15T06:57:12;7.07;;;1.03;;
39948;SDS011;29070;48.102;-1.652;2022-11-15T07:02:13;8.20;;;1.93;;
39948;SDS011;29070;48.102;-1.652;2022-11-15T07:07:13;7.05;;;1.10;;
39948;SDS011;29070;48.102;-1.652;2022-11-15T07:12:14;9.20;;;1.40;;
39948;SDS011;29070;48.102;-1.652;2022-11-15T07:17:14;9.77;;;1.37;;
39948;SDS011;29070;48.102;-1.652;2022-11-15T07:22:14;2.07;;;0.83;;
39948;SDS011;29070;48.102;-1.652;2022-11-15T07:27:15;5.57;;;1.13;;
39948;SDS011;29070;48.102;-1.652;2022-11-15T07:32:15;3.50;;;1.10;;
39948;SDS011;29070;48.102;-1.652;2022-11-15T07:37:16;3.73;;;1.00;;
39948;SDS011;29070;48.102;-1.652;2022-11-15T07:42:16;5.43;;;1.10;;
39948;SDS011;29070;48.102;-1.652;2022-11-15T07:47:35;2.13;;;0.90;;
39948;SDS011;29070;48.102;-1.652;2022-11-15T07:52:36;5.10;;;0.93;;
39948;SDS011;29070;48.102;-1.652;2022-11-15T07:57:36;4.10;;;0.80;;
39948;SDS011;29070;48.102;-1.652;2022-11-15T08:02:37;7.90;;;1.23;;
39948;SDS011;29070;48.102;-1.652;2022-11-15T08:07:37;3.10;;;1.00;;
39948;SDS011;29070;48.102;-1.652;2022-11-15T08:12:38;4.35;;;1.00;;
39948;SDS011;29070;48.102;-1.652;2022-11-15T08:17:38;6.17;;;1.10;;
39948;SDS011;29070;48.102;-1.652;2022-11-15T08:22:38;3.33;;;0.90;;
39948;SDS011;29070;48.102;-1.652;2022-11-15T08:27:39;2.67;;;0.50;;
39948;SDS011;29070;48.102;-1.652;2022-11-15T08:32:39;4.20;;;0.60;;
39948;SDS011;29070;48.102;-1.652;2022-11-15T08:37:39;2.33;;;0.50;;
39948;SDS011;29070;48.102;-1.652;2022-11-15T08:42:40;3.53;;;0.80;;
39948;SDS011;29070;48.102;-1.652;2022-11-15T08:47:40;3.30;;;1.03;;
39948;SDS011;29070;48.102;-1.652;2022-11-15T08:52:40;3.57;;;0.70;;
39948;SDS011;29070;48.102;-1.652;2022-11-15T08:57:41;1.03;;;0.40;;
39948;SDS011;29070;48.102;-1.652;2022-11-15T09:02:41;3.33;;;0.47;;
39948;SDS011;29070;48.102;-1.652;2022-11-15T09:07:41;8.73;;;0.70;;
39948;SDS011;29070;48.102;-1.652;2022-11-15T09:12:42;2.05;;;0.60;;
39948;SDS011;29070;48.102;-1.652;2022-11-15T09:17:43;5.30;;;0.77;;
39948;SDS011;29070;48.102;-1.652;2022-11-15T09:22:43;9.27;;;0.80;;
39948;SDS011;29070;48.102;-1.652;2022-11-15T09:27:43;0.93;;;0.50;;
39948;SDS011;29070;48.102;-1.652;2022-11-15T09:32:44;1.73;;;0.50;;
39948;SDS011;29070;48.102;-1.652;2022-11-15T09:37:44;1.63;;;0.73;;
39948;SDS011;29070;48.102;-1.652;2022-11-15T09:54:09;1.40;;;0.68;;
39948;SDS011;29070;48.102;-1.652;2022-11-15T09:59:28;3.10;;;0.90;;
39948;SDS011;29070;48.102;-1.652;2022-11-15T10:04:40;7.05;;;1.00;;
39948;SDS011;29070;48.102;-1.652;2022-11-15T10:09:43;4.78;;;1.00;;
39948;SDS011;29070;48.102;-1.652;2022-11-15T10:14:49;2.90;;;0.82;;
39948;SDS011;29070;48.102;-1.652;2022-11-15T10:25:39;3.80;;;0.95;;
39948;SDS011;29070;48.102;-1.652;2022-11-15T10:30:33;3.75;;;1.17;;
39948;SDS011;29070;48.102;-1.652;2022-11-15T10:35:35;6.97;;;1.30;;
39948;SDS011;29070;48.102;-1.652;2022-11-15T10:40:36;5.37;;;1.30;;
39948;SDS011;29070;48.102;-1.652;2022-11-15T10:45:37;5.60;;;1.13;;
39948;SDS011;29070;48.102;-1.652;2022-11-15T10:50:42;3.83;;;1.23;;
39948;SDS011;29070;48.102;-1.652;2022-11-15T10:55:46;8.20;;;1.30;;
39948;SDS011;29070;48.102;-1.652;2022-11-15T11:00:48;9.20;;;1.40;;
39948;SDS011;29070;48.102;-1.652;2022-11-15T11:05:48;6.77;;;1.47;;
39948;SDS011;29070;48.102;-1.652;2022-11-15T11:11:03;9.50;;;0.90;;
39948;SDS011;29070;48.102;-1.652;2022-11-15T11:21:13;7.18;;;1.40;;
39948;SDS011;29070;48.102;-1.652;2022-11-15T11:26:29;9.07;;;1.63;;
39948;SDS011;29070;48.102;-1.652;2022-11-15T11:47:24;9.02;;;1.20;;
39948;SDS011;29070;48.102;-1.652;2022-11-15T11:53:09;13.02;;;1.48;;
39948;SDS011;29070;48.102;-1.652;2022-11-15T12:03:32;7.28;;;1.45;;
39948;SDS011;29070;48.102;-1.652;2022-11-15T12:08:47;11.48;;;1.63;;
39948;SDS011;29070;48.102;-1.652;2022-11-15T12:13:56;5.97;;;1.63;;
39948;SDS011;29070;48.102;-1.652;2022-11-15T12:19:01;9.10;;;2.45;;
39948;SDS011;29070;48.102;-1.652;2022-11-15T12:24:09;13.15;;;2.22;;
39948;SDS011;29070;48.102;-1.652;2022-11-15T12:29:20;8.02;;;1.55;;
39948;SDS011;29070;48.102;-1.652;2022-11-15T12:45:27;9.05;;;1.17;;
39948;SDS011;29070;48.102;-1.652;2022-11-15T13:06:36;10.93;;;1.55;;
39948;SDS011;29070;48.102;-1.652;2022-11-15T13:11:43;6.47;;;1.10;;
39948;SDS011;29070;48.102;-1.652;2022-11-15T13:16:44;11.07;;;1.60;;
39948;SDS011;29070;48.102;-1.652;2022-11-15T13:21:47;7.57;;;1.02;;
39948;SDS011;29070;48.102;-1.652;2022-11-15T13:27:13;4.82;;;0.80;;
39948;SDS011;29070;48.102;-1.652;2022-11-15T13:32:17;4.70;;;0.88;;
39948;SDS011;29070;48.102;-1.652;2022-11-15T13:42:21;6.25;;;1.30;;
39948;SDS011;29070;48.102;-1.652;2022-11-15T13:47:24;4.13;;;1.00;;
39948;SDS011;29070;48.102;-1.652;2022-11-15T13:52:27;17.42;;;1.92;;
39948;SDS011;29070;48.102;-1.652;2022-11-15T13:57:38;91.13;;;8.50;;
39948;SDS011;29070;48.102;-1.652;2022-11-15T14:02:42;13.00;;;1.10;;
39948;SDS011;29070;48.102;-1.652;2022-11-15T14:07:59;4.30;;;0.77;;
39948;SDS011;29070;48.102;-1.652;2022-11-15T14:13:29;14.70;;;1.30;;
39948;SDS011;29070;48.102;-1.652;2022-11-15T14:18:47;6.20;;;0.75;;
39948;SDS011;29070;48.102;-1.652;2022-11-15T14:23:49;5.93;;;0.90;;
39948;SDS011;29070;48.102;-1.652;2022-11-15T14:28:50;11.50;;;0.70;;
39948;SDS011;29070;48.102;-1.652;2022-11-15T14:33:50;8.50;;;1.13;;
39948;SDS011;29070;48.102;-1.652;2022-11-15T14:38:51;6.43;;;1.23;;
39948;SDS011;29070;48.102;-1.652;2022-11-15T14:43:52;11.03;;;1.40;;
39948;SDS011;29070;48.102;-1.652;2022-11-15T14:48:52;4.68;;;1.00;;
39948;SDS011;29070;48.102;-1.652;2022-11-15T14:53:53;5.70;;;1.15;;
39948;SDS011;29070;48.102;-1.652;2022-11-15T14:58:55;4.53;;;0.68;;
39948;SDS011;29070;48.102;-1.652;2022-11-15T15:03:55;3.43;;;0.80;;
39948;SDS011;29070;48.102;-1.652;2022-11-15T15:08:57;3.22;;;0.60;;
39948;SDS011;29070;48.102;-1.652;2022-11-15T15:13:57;2.10;;;0.33;;
39948;SDS011;29070;48.102;-1.652;2022-11-15T15:19:00;3.58;;;0.80;;
39948;SDS011;29070;48.102;-1.652;2022-11-15T15:24:01;3.40;;;0.63;;
39948;SDS011;29070;48.102;-1.652;2022-11-15T15:29:02;3.67;;;0.75;;
39948;SDS011;29070;48.102;-1.652;2022-11-15T15:34:02;2.80;;;0.70;;
39948;SDS011;29070;48.102;-1.652;2022-11-15T15:39:02;4.82;;;0.75;;
39948;SDS011;29070;48.102;-1.652;2022-11-15T15:44:03;2.17;;;0.30;;
39948;SDS011;29070;48.102;-1.652;2022-11-15T15:49:03;5.87;;;0.80;;
39948;SDS011;29070;48.102;-1.652;2022-11-15T15:54:04;5.23;;;0.93;;
39948;SDS011;29070;48.102;-1.652;2022-11-15T15:59:04;7.17;;;1.20;;
39948;SDS011;29070;48.102;-1.652;2022-11-15T16:04:04;7.37;;;1.00;;
39948;SDS011;29070;48.102;-1.652;2022-11-15T16:09:05;5.43;;;1.00;;
39948;SDS011;29070;48.102;-1.652;2022-11-15T16:14:06;4.75;;;1.00;;
39948;SDS011;29070;48.102;-1.652;2022-11-15T16:19:07;6.82;;;0.85;;
39948;SDS011;29070;48.102;-1.652;2022-11-15T16:24:10;8.30;;;1.02;;
39948;SDS011;29070;48.102;-1.652;2022-11-15T16:29:10;31.03;;;3.17;;
39948;SDS011;29070;48.102;-1.652;2022-11-15T16:34:11;7.53;;;1.00;;
39948;SDS011;29070;48.102;-1.652;2022-11-15T16:39:11;8.83;;;1.00;;
39948;SDS011;29070;48.102;-1.652;2022-11-15T16:44:18;6.15;;;1.05;;
39948;SDS011;29070;48.102;-1.652;2022-11-15T16:49:19;7.47;;;1.03;;
39948;SDS011;29070;48.102;-1.652;2022-11-15T16:54:20;8.05;;;1.50;;
39948;SDS011;29070;48.102;-1.652;2022-11-15T16:59:21;7.67;;;1.30;;
39948;SDS011;29070;48.102;-1.652;2022-11-15T17:04:21;6.93;;;1.23;;
39948;SDS011;29070;48.102;-1.652;2022-11-15T17:09:22;4.57;;;1.27;;
39948;SDS011;29070;48.102;-1.652;2022-11-15T17:14:23;6.07;;;1.50;;
39948;SDS011;29070;48.102;-1.652;2022-11-15T17:19:23;5.40;;;1.60;;
39948;SDS011;29070;48.102;-1.652;2022-11-15T17:24:24;9.30;;;1.90;;
39948;SDS011;29070;48.102;-1.652;2022-11-15T17:29:24;5.43;;;1.23;;
39948;SDS011;29070;48.102;-1.652;2022-11-15T17:34:24;13.70;;;2.07;;
39948;SDS011;29070;48.102;-1.652;2022-11-15T17:39:25;8.23;;;1.47;;
39948;SDS011;29070;48.102;-1.652;2022-11-15T17:44:26;5.93;;;1.38;;
39948;SDS011;29070;48.102;-1.652;2022-11-15T17:49:26;10.53;;;1.60;;
39948;SDS011;29070;48.102;-1.652;2022-11-15T17:54:26;11.17;;;1.63;;
39948;SDS011;29070;48.102;-1.652;2022-11-15T17:59:27;12.67;;;2.10;;
39948;SDS011;29070;48.102;-1.652;2022-11-15T18:04:27;6.60;;;1.67;;
39948;SDS011;29070;48.102;-1.652;2022-11-15T18:09:27;9.68;;;1.67;;
39948;SDS011;29070;48.102;-1.652;2022-11-15T18:14:28;6.50;;;1.95;;
39948;SDS011;29070;48.102;-1.652;2022-11-15T18:19:28;12.23;;;2.43;;
39948;SDS011;29070;48.102;-1.652;2022-11-15T18:24:35;8.07;;;2.23;;
39948;SDS011;29070;48.102;-1.652;2022-11-15T18:29:37;5.65;;;1.77;;
39948;SDS011;29070;48.102;-1.652;2022-11-15T18:34:37;13.25;;;3.15;;
39948;SDS011;29070;48.102;-1.652;2022-11-15T18:39:38;10.02;;;2.30;;
39948;SDS011;29070;48.102;-1.652;2022-11-15T18:44:38;14.00;;;2.37;;
39948;SDS011;29070;48.102;-1.652;2022-11-15T18:49:39;9.60;;;3.40;;
39948;SDS011;29070;48.102;-1.652;2022-11-15T18:54:39;11.20;;;3.07;;
39948;SDS011;29070;48.102;-1.652;2022-11-15T18:59:40;15.50;;;3.57;;
39948;SDS011;29070;48.102;-1.652;2022-11-15T19:04:40;15.43;;;4.47;;
39948;SDS011;29070;48.102;-1.652;2022-11-15T19:09:40;15.07;;;3.93;;
39948;SDS011;29070;48.102;-1.652;2022-11-15T19:14:41;14.50;;;4.37;;
39948;SDS011;29070;48.102;-1.652;2022-11-15T19:19:41;14.47;;;4.33;;
39948;SDS011;29070;48.102;-1.652;2022-11-15T19:24:41;14.23;;;4.50;;
39948;SDS011;29070;48.102;-1.652;2022-11-15T19:29:42;15.13;;;4.75;;
39948;SDS011;29070;48.102;-1.652;2022-11-15T19:34:42;14.77;;;3.40;;
39948;SDS011;29070;48.102;-1.652;2022-11-15T19:39:42;12.10;;;3.63;;
39948;SDS011;29070;48.102;-1.652;2022-11-15T19:44:43;13.67;;;3.53;;
39948;SDS011;29070;48.102;-1.652;2022-11-15T19:49:43;14.70;;;4.53;;
39948;SDS011;29070;48.102;-1.652;2022-11-15T19:54:45;12.88;;;3.47;;
39948;SDS011;29070;48.102;-1.652;2022-11-15T19:59:45;14.20;;;3.60;;
39948;SDS011;29070;48.102;-1.652;2022-11-15T20:04:46;9.00;;;3.13;;
39948;SDS011;29070;48.102;-1.652;2022-11-15T20:09:46;11.20;;;3.40;;
39948;SDS011;29070;48.102;-1.652;2022-11-15T20:14:46;12.80;;;3.83;;
39948;SDS011;29070;48.102;-1.652;2022-11-15T20:19:47;15.57;;;2.87;;
39948;SDS011;29070;48.102;-1.652;2022-11-15T20:24:47;9.33;;;2.77;;
39948;SDS011;29070;48.102;-1.652;2022-11-15T20:29:47;11.93;;;2.03;;
39948;SDS011;29070;48.102;-1.652;2022-11-15T20:34:48;16.42;;;1.98;;
39948;SDS011;29070;48.102;-1.652;2022-11-15T20:39:49;13.43;;;2.43;;
39948;SDS011;29070;48.102;-1.652;2022-11-15T20:44:49;12.07;;;2.93;;
39948;SDS011;29070;48.102;-1.652;2022-11-15T20:49:49;10.80;;;2.87;;
39948;SDS011;29070;48.102;-1.652;2022-11-15T20:54:50;10.35;;;2.10;;
39948;SDS011;29070;48.102;-1.652;2022-11-15T20:59:50;11.30;;;1.70;;
39948;SDS011;29070;48.102;-1.652;2022-11-15T21:04:51;9.33;;;2.07;;
39948;SDS011;29070;48.102;-1.652;2022-11-15T21:09:51;9.50;;;2.07;;
39948;SDS011;29070;48.102;-1.652;2022-11-15T21:15:10;10.00;;;1.70;;
39948;SDS011;29070;48.102;-1.652;2022-11-15T21:20:10;8.55;;;2.08;;
39948;SDS011;29070;48.102;-1.652;2022-11-15T21:25:11;14.82;;;3.63;;
39948;SDS011;29070;48.102;-1.652;2022-11-15T21:30:11;10.03;;;2.70;;
39948;SDS011;29070;48.102;-1.652;2022-11-15T21:35:12;9.10;;;1.70;;
39948;SDS011;29070;48.102;-1.652;2022-11-15T21:40:13;7.22;;;1.73;;
39948;SDS011;29070;48.102;-1.652;2022-11-15T21:45:13;9.67;;;1.87;;
39948;SDS011;29070;48.102;-1.652;2022-11-15T21:50:14;5.68;;;1.30;;
39948;SDS011;29070;48.102;-1.652;2022-11-15T21:55:14;8.40;;;2.22;;
39948;SDS011;29070;48.102;-1.652;2022-11-15T22:00:15;9.10;;;2.23;;
39948;SDS011;29070;48.102;-1.652;2022-11-15T22:05:34;7.35;;;2.00;;
39948;SDS011;29070;48.102;-1.652;2022-11-15T22:10:35;11.03;;;2.03;;
39948;SDS011;29070;48.102;-1.652;2022-11-15T22:15:35;6.87;;;1.80;;
39948;SDS011;29070;48.102;-1.652;2022-11-15T22:20:35;4.77;;;1.43;;
39948;SDS011;29070;48.102;-1.652;2022-11-15T22:25:36;3.83;;;1.47;;
39948;SDS011;29070;48.102;-1.652;2022-11-15T22:30:36;3.93;;;1.43;;
39948;SDS011;29070;48.102;-1.652;2022-11-15T22:35:37;8.52;;;1.50;;
39948;SDS011;29070;48.102;-1.652;2022-11-15T22:40:38;7.88;;;1.27;;
39948;SDS011;29070;48.102;-1.652;2022-11-15T22:45:45;6.80;;;1.52;;
39948;SDS011;29070;48.102;-1.652;2022-11-15T22:50:47;4.00;;;1.77;;
39948;SDS011;29070;48.102;-1.652;2022-11-15T22:55:53;8.98;;;2.15;;
39948;SDS011;29070;48.102;-1.652;2022-11-15T23:00:56;8.18;;;2.08;;
39948;SDS011;29070;48.102;-1.652;2022-11-15T23:06:03;9.98;;;1.98;;
39948;SDS011;29070;48.102;-1.652;2022-11-15T23:11:04;9.77;;;2.03;;
39948;SDS011;29070;48.102;-1.652;2022-11-15T23:16:23;6.88;;;1.85;;
39948;SDS011;29070;48.102;-1.652;2022-11-15T23:21:40;7.90;;;1.70;;
39948;SDS011;29070;48.102;-1.652;2022-11-15T23:27:03;7.38;;;1.40;;
39948;SDS011;29070;48.102;-1.652;2022-11-15T23:32:09;5.20;;;1.52;;
39948;SDS011;29070;48.102;-1.652;2022-11-15T23:37:28;7.82;;;1.23;;
39948;SDS011;29070;48.102;-1.652;2022-11-15T23:42:28;7.05;;;1.40;;
39948;SDS011;29070;48.102;-1.652;2022-11-15T23:47:28;6.28;;;1.17;;
39948;SDS011;29070;48.102;-1.652;2022-11-15T23:52:29;4.80;;;1.30;;
39948;SDS011;29070;48.102;-1.652;2022-11-15T23:57:29;8.33;;;1.40;;
